»·PEaware :: TESTR22 KEGE-KEGE

TESTR22 :: KEGE-KEGE

FLIGHT INFORMATION

Flight Status: Arrived
Operator: Unknown
More flights by this operator :: More flights under this callsign
Pilot: Cody A. (26762)
Aircraft: BEECH AIRCRAFT T-6A TEXAN
(TEX2)
More flights by this aircraft type
Origin: KEGE Eagle Co Regl
United States
Destination: KEGE Eagle Co Regl
United States
More flights between these airports :: More routes between these airports
Route: +
File this flight plan on PilotEdge
Remarks:
Altitude:
(Current/Filed)
0ft
Speed:
(Current/Filed)
0kts
Departed: 05-Nov-19 01:16 PM
Arrived: 05-Nov-19 01:19 PM
Distance/Time
Traveled:
6nm/0:03
Distance/Time
To Go:
Arrived

Flight Plot

Page will automatically refresh every two minutes.

Flight plan parsing failed; only flown route is shown


Map Options




Map Legend


Flown Route
Filed Route
Departure Airport
Arrival Airport
Navaid (VOR, NDB)
Fix

Horizontal Profiles

Position Reports

Time Latitude Longitude Heading Altitude Ground
Speed
05-Nov-19 12:42 39.641421 -106.906776 262 6549ft 0kts
05-Nov-19 12:43 39.641421 -106.906776 262 6549ft 0kts
05-Nov-19 12:44 39.641421 -106.906776 262 6549ft 0kts
05-Nov-19 12:45 39.641421 -106.906776 262 6549ft 0kts
05-Nov-19 12:46 39.641421 -106.906776 262 6549ft 0kts
05-Nov-19 12:47 39.641421 -106.906776 262 6549ft 0kts
05-Nov-19 12:48 39.641421 -106.906776 262 6549ft 0kts
05-Nov-19 12:49 39.641421 -106.906776 262 6549ft 0kts
05-Nov-19 12:50 39.641421 -106.906776 262 6549ft 0kts
05-Nov-19 12:51 39.641421 -106.906776 262 6549ft 0kts
05-Nov-19 12:52 39.641421 -106.906776 262 6549ft 0kts
05-Nov-19 12:53 39.641421 -106.906776 262 6549ft 0kts
05-Nov-19 12:54 39.641421 -106.906776 262 6549ft 0kts
05-Nov-19 12:55 39.641421 -106.906776 262 6549ft 0kts
05-Nov-19 12:56 39.641421 -106.906776 262 6549ft 0kts
05-Nov-19 12:57 39.641421 -106.906776 262 6549ft 0kts
05-Nov-19 12:58 39.641421 -106.906776 262 6549ft 0kts
05-Nov-19 12:59 39.641421 -106.906776 262 6549ft 0kts
05-Nov-19 13:00 39.641421 -106.906776 262 6549ft 0kts
05-Nov-19 13:01 39.641421 -106.906776 262 6549ft 0kts
05-Nov-19 13:02 39.641421 -106.906776 262 6549ft 0kts
05-Nov-19 13:03 39.641421 -106.906776 262 6549ft 0kts
05-Nov-19 13:04 39.641421 -106.906776 262 6549ft 0kts
05-Nov-19 13:05 39.641421 -106.906776 262 6549ft 0kts
05-Nov-19 13:06 39.641421 -106.906776 262 6549ft 0kts
05-Nov-19 13:08 39.641422 -106.906764 262 6549ft 0kts
05-Nov-19 13:09 39.641422 -106.906764 262 6549ft 0kts
05-Nov-19 13:11 39.641422 -106.906764 262 6549ft 0kts
05-Nov-19 13:12 39.642295 -106.906335 358 6549ft 11kts
05-Nov-19 13:13 39.643463 -106.900185 0 6549ft 0kts
05-Nov-19 13:14 39.644372 -106.900822 260 6549ft 21kts
05-Nov-19 13:15 39.641447 -106.920699 254 7051ft 151kts
05-Nov-19 13:16 39.627856 -106.901209 79 7623ft 157kts
05-Nov-19 13:17 39.644679 -106.889819 278 6727ft 121kts
05-Nov-19 13:18 39.642560 -106.909460 174 6549ft 11kts
05-Nov-19 13:19 39.641610 -106.909364 184 6549ft 0kts
05-Nov-19 13:20 39.641610 -106.909364 184 6549ft 0kts
05-Nov-19 13:21 39.641610 -106.909364 184 6549ft 0kts
05-Nov-19 13:22 39.641610 -106.909364 184 6549ft 0kts
05-Nov-19 13:23 39.641610 -106.909364 184 6549ft 0kts
05-Nov-19 13:24 39.641610 -106.909364 184 6549ft 0kts
05-Nov-19 13:25 39.641610 -106.909364 184 6549ft 0kts
05-Nov-19 13:26 39.641610 -106.909364 184 6549ft 0kts
05-Nov-19 13:27 39.641610 -106.909364 184 6549ft 0kts
05-Nov-19 13:28 39.641807 -106.909250 350 6549ft 0kts
05-Nov-19 13:29 39.642891 -106.904482 81 6549ft 41kts
05-Nov-19 13:30 39.643411 -106.900461 20 6549ft 0kts
05-Nov-19 13:31 39.644434 -106.900413 265 6549ft 8kts
05-Nov-19 13:32 39.645510 -106.950257 298 7020ft 204kts
05-Nov-19 13:34 39.645444 -107.037951 288 6652ft 252kts

Navigation Log

Ident Type
Flight plan parsing failed, navigation log unavailable